sensor_id;sensor_type;location;lat;lon;timestamp;temperature;humidity
5578;DHT22;2811;51.900;10.734;2023-05-07T00:01:14;10.20;99.90
5578;DHT22;2811;51.900;10.734;2023-05-07T00:03:40;10.30;99.90
5578;DHT22;2811;51.900;10.734;2023-05-07T00:06:08;10.30;99.90
5578;DHT22;2811;51.900;10.734;2023-05-07T00:08:38;10.30;99.90
5578;DHT22;2811;51.900;10.734;2023-05-07T00:11:04;10.30;99.90
5578;DHT22;2811;51.900;10.734;2023-05-07T00:13:31;10.30;99.90
5578;DHT22;2811;51.900;10.734;2023-05-07T00:16:00;10.30;99.90
5578;DHT22;2811;51.900;10.734;2023-05-07T00:18:27;10.30;99.90
5578;DHT22;2811;51.900;10.734;2023-05-07T00:20:54;10.20;99.90
5578;DHT22;2811;51.900;10.734;2023-05-07T00:23:22;10.20;99.90
5578;DHT22;2811;51.900;10.734;2023-05-07T00:25:48;10.30;99.90
5578;DHT22;2811;51.900;10.734;2023-05-07T00:28:15;10.40;99.90
5578;DHT22;2811;51.900;10.734;2023-05-07T00:30:42;10.40;99.90
5578;DHT22;2811;51.900;10.734;2023-05-07T00:33:08;10.30;99.90
5578;DHT22;2811;51.900;10.734;2023-05-07T00:35:35;10.30;99.90
5578;DHT22;2811;51.900;10.734;2023-05-07T00:38:02;10.40;99.90
5578;DHT22;2811;51.900;10.734;2023-05-07T00:40:30;10.30;99.90
5578;DHT22;2811;51.900;10.734;2023-05-07T00:42:56;10.20;99.90
5578;DHT22;2811;51.900;10.734;2023-05-07T00:45:26;10.20;99.90
5578;DHT22;2811;51.900;10.734;2023-05-07T00:47:54;10.30;99.90
5578;DHT22;2811;51.900;10.734;2023-05-07T00:50:20;10.30;99.90
5578;DHT22;2811;51.900;10.734;2023-05-07T00:52:47;10.30;99.90
5578;DHT22;2811;51.900;10.734;2023-05-07T00:55:14;10.30;99.90
5578;DHT22;2811;51.900;10.734;2023-05-07T00:57:42;10.30;99.90
5578;DHT22;2811;51.900;10.734;2023-05-07T01:00:11;10.30;99.90
5578;DHT22;2811;51.900;10.734;2023-05-07T01:02:38;10.30;99.90
5578;DHT22;2811;51.900;10.734;2023-05-07T01:05:06;10.30;99.90
5578;DHT22;2811;51.900;10.734;2023-05-07T01:07:35;10.50;99.90
5578;DHT22;2811;51.900;10.734;2023-05-07T01:10:02;10.40;99.90
5578;DHT22;2811;51.900;10.734;2023-05-07T01:12:29;10.40;99.90
5578;DHT22;2811;51.900;10.734;2023-05-07T01:14:58;10.40;99.90
5578;DHT22;2811;51.900;10.734;2023-05-07T01:17:25;10.40;99.90
5578;DHT22;2811;51.900;10.734;2023-05-07T01:19:52;10.80;99.90
5578;DHT22;2811;51.900;10.734;2023-05-07T01:22:29;10.40;99.90
5578;DHT22;2811;51.900;10.734;2023-05-07T01:24:57;10.40;99.90
5578;DHT22;2811;51.900;10.734;2023-05-07T01:27:24;10.40;99.90
5578;DHT22;2811;51.900;10.734;2023-05-07T01:29:51;10.30;99.90
5578;DHT22;2811;51.900;10.734;2023-05-07T01:32:20;10.40;99.90
5578;DHT22;2811;51.900;10.734;2023-05-07T01:34:48;10.30;99.90
5578;DHT22;2811;51.900;10.734;2023-05-07T01:37:15;10.20;99.90
5578;DHT22;2811;51.900;10.734;2023-05-07T01:39:44;10.10;99.90
5578;DHT22;2811;51.900;10.734;2023-05-07T01:42:11;10.30;99.90
5578;DHT22;2811;51.900;10.734;2023-05-07T01:44:38;10.30;99.90
5578;DHT22;2811;51.900;10.734;2023-05-07T01:47:05;10.30;99.90
5578;DHT22;2811;51.900;10.734;2023-05-07T01:49:32;10.20;99.90
5578;DHT22;2811;51.900;10.734;2023-05-07T01:52:00;10.20;99.90
5578;DHT22;2811;51.900;10.734;2023-05-07T01:54:27;10.20;99.90
5578;DHT22;2811;51.900;10.734;2023-05-07T01:56:56;10.20;99.90
5578;DHT22;2811;51.900;10.734;2023-05-07T01:59:23;10.20;99.90
5578;DHT22;2811;51.900;10.734;2023-05-07T02:01:49;10.10;99.90
5578;DHT22;2811;51.900;10.734;2023-05-07T02:04:16;10.10;99.90
5578;DHT22;2811;51.900;10.734;2023-05-07T02:06:43;10.00;99.90
5578;DHT22;2811;51.900;10.734;2023-05-07T02:09:09;10.10;99.90
5578;DHT22;2811;51.900;10.734;2023-05-07T02:11:36;10.10;99.90
5578;DHT22;2811;51.900;10.734;2023-05-07T02:14:04;10.10;99.90
5578;DHT22;2811;51.900;10.734;2023-05-07T02:16:31;10.10;99.90
5578;DHT22;2811;51.900;10.734;2023-05-07T02:18:57;10.10;99.90
5578;DHT22;2811;51.900;10.734;2023-05-07T02:21:24;10.10;99.90
5578;DHT22;2811;51.900;10.734;2023-05-07T02:23:51;10.20;99.90
5578;DHT22;2811;51.900;10.734;2023-05-07T02:26:18;10.20;99.90
5578;DHT22;2811;51.900;10.734;2023-05-07T02:28:45;10.30;99.90
5578;DHT22;2811;51.900;10.734;2023-05-07T02:31:13;10.20;99.90
5578;DHT22;2811;51.900;10.734;2023-05-07T02:33:39;10.30;99.90
5578;DHT22;2811;51.900;10.734;2023-05-07T02:36:07;10.20;99.90
5578;DHT22;2811;51.900;10.734;2023-05-07T02:38:34;10.30;99.90
5578;DHT22;2811;51.900;10.734;2023-05-07T02:41:01;10.10;99.90
5578;DHT22;2811;51.900;10.734;2023-05-07T02:43:27;10.10;99.90
5578;DHT22;2811;51.900;10.734;2023-05-07T02:46:01;10.10;99.90
5578;DHT22;2811;51.900;10.734;2023-05-07T02:48:29;10.10;99.90
5578;DHT22;2811;51.900;10.734;2023-05-07T02:50:56;10.00;99.90
5578;DHT22;2811;51.900;10.734;2023-05-07T02:53:22;10.10;99.90
5578;DHT22;2811;51.900;10.734;2023-05-07T02:55:51;10.10;99.90
5578;DHT22;2811;51.900;10.734;2023-05-07T02:58:18;10.00;99.90
5578;DHT22;2811;51.900;10.734;2023-05-07T03:00:45;10.10;99.90
5578;DHT22;2811;51.900;10.734;2023-05-07T03:03:11;10.00;99.90
5578;DHT22;2811;51.900;10.734;2023-05-07T03:05:39;10.00;99.90
5578;DHT22;2811;51.900;10.734;2023-05-07T03:08:06;10.00;99.90
5578;DHT22;2811;51.900;10.734;2023-05-07T03:10:33;9.90;99.90
5578;DHT22;2811;51.900;10.734;2023-05-07T03:13:01;9.90;99.90
5578;DHT22;2811;51.900;10.734;2023-05-07T03:15:27;9.90;99.90
5578;DHT22;2811;51.900;10.734;2023-05-07T03:17:54;10.00;99.90
5578;DHT22;2811;51.900;10.734;2023-05-07T03:20:20;10.00;99.90
5578;DHT22;2811;51.900;10.734;2023-05-07T03:22:48;10.00;99.90
5578;DHT22;2811;51.900;10.734;2023-05-07T03:25:15;10.00;99.90
5578;DHT22;2811;51.900;10.734;2023-05-07T03:27:42;9.90;99.90
5578;DHT22;2811;51.900;10.734;2023-05-07T03:30:09;9.80;99.90
5578;DHT22;2811;51.900;10.734;2023-05-07T03:32:36;9.80;99.90
5578;DHT22;2811;51.900;10.734;2023-05-07T03:35:03;9.70;99.90
5578;DHT22;2811;51.900;10.734;2023-05-07T03:37:30;9.60;99.90
5578;DHT22;2811;51.900;10.734;2023-05-07T03:39:58;9.50;99.90
5578;DHT22;2811;51.900;10.734;2023-05-07T03:42:25;9.50;99.90
5578;DHT22;2811;51.900;10.734;2023-05-07T03:44:51;9.40;99.90
5578;DHT22;2811;51.900;10.734;2023-05-07T03:47:18;9.30;99.90
5578;DHT22;2811;51.900;10.734;2023-05-07T03:49:45;9.40;99.90
5578;DHT22;2811;51.900;10.734;2023-05-07T03:52:11;9.40;99.90
5578;DHT22;2811;51.900;10.734;2023-05-07T03:54:38;9.40;99.90
5578;DHT22;2811;51.900;10.734;2023-05-07T03:57:06;9.50;99.90
5578;DHT22;2811;51.900;10.734;2023-05-07T03:59:33;9.50;99.90
5578;DHT22;2811;51.900;10.734;2023-05-07T04:01:59;9.40;99.90
5578;DHT22;2811;51.900;10.734;2023-05-07T04:04:26;9.50;99.90
5578;DHT22;2811;51.900;10.734;2023-05-07T04:06:52;9.60;99.90
5578;DHT22;2811;51.900;10.734;2023-05-07T04:09:19;9.50;99.90
5578;DHT22;2811;51.900;10.734;2023-05-07T04:11:46;9.50;99.90
5578;DHT22;2811;51.900;10.734;2023-05-07T04:14:14;9.50;99.90
5578;DHT22;2811;51.900;10.734;2023-05-07T04:16:40;9.40;99.90
5578;DHT22;2811;51.900;10.734;2023-05-07T04:19:07;9.30;99.90
5578;DHT22;2811;51.900;10.734;2023-05-07T04:21:34;9.40;99.90
5578;DHT22;2811;51.900;10.734;2023-05-07T04:24:00;9.40;99.90
5578;DHT22;2811;51.900;10.734;2023-05-07T04:26:27;9.40;99.90
5578;DHT22;2811;51.900;10.734;2023-05-07T04:28:53;9.50;99.90
5578;DHT22;2811;51.900;10.734;2023-05-07T04:31:21;9.50;99.90
5578;DHT22;2811;51.900;10.734;2023-05-07T04:33:48;9.60;99.90
5578;DHT22;2811;51.900;10.734;2023-05-07T04:36:16;9.50;99.90
5578;DHT22;2811;51.900;10.734;2023-05-07T04:38:43;9.40;99.90
5578;DHT22;2811;51.900;10.734;2023-05-07T04:41:12;9.50;99.90
5578;DHT22;2811;51.900;10.734;2023-05-07T04:43:39;9.50;99.90
5578;DHT22;2811;51.900;10.734;2023-05-07T04:46:07;9.60;99.90
5578;DHT22;2811;51.900;10.734;2023-05-07T04:48:35;9.50;99.90
5578;DHT22;2811;51.900;10.734;2023-05-07T04:51:01;9.50;99.90
5578;DHT22;2811;51.900;10.734;2023-05-07T04:53:28;9.50;99.90
5578;DHT22;2811;51.900;10.734;2023-05-07T04:55:56;9.60;99.90
5578;DHT22;2811;51.900;10.734;2023-05-07T04:58:23;9.60;99.90
5578;DHT22;2811;51.900;10.734;2023-05-07T05:00:50;9.60;99.90
5578;DHT22;2811;51.900;10.734;2023-05-07T05:03:17;9.60;99.90
5578;DHT22;2811;51.900;10.734;2023-05-07T05:05:45;9.70;99.90
5578;DHT22;2811;51.900;10.734;2023-05-07T05:08:11;9.60;99.90
5578;DHT22;2811;51.900;10.734;2023-05-07T05:10:38;9.60;99.90
5578;DHT22;2811;51.900;10.734;2023-05-07T05:13:06;9.70;99.90
5578;DHT22;2811;51.900;10.734;2023-05-07T05:15:33;9.60;99.90
5578;DHT22;2811;51.900;10.734;2023-05-07T05:18:00;9.50;99.90
5578;DHT22;2811;51.900;10.734;2023-05-07T05:20:26;9.50;99.90
5578;DHT22;2811;51.900;10.734;2023-05-07T05:22:54;9.50;99.90
5578;DHT22;2811;51.900;10.734;2023-05-07T05:25:21;9.60;99.90
5578;DHT22;2811;51.900;10.734;2023-05-07T05:27:47;9.50;99.90
5578;DHT22;2811;51.900;10.734;2023-05-07T05:30:14;9.60;99.90
5578;DHT22;2811;51.900;10.734;2023-05-07T05:32:41;9.60;99.90
5578;DHT22;2811;51.900;10.734;2023-05-07T05:35:08;9.60;99.90
5578;DHT22;2811;51.900;10.734;2023-05-07T05:37:35;9.80;99.90
5578;DHT22;2811;51.900;10.734;2023-05-07T05:40:03;9.90;99.90
5578;DHT22;2811;51.900;10.734;2023-05-07T05:42:30;9.90;99.90
5578;DHT22;2811;51.900;10.734;2023-05-07T05:44:57;9.80;99.90
5578;DHT22;2811;51.900;10.734;2023-05-07T05:47:23;9.70;99.90
5578;DHT22;2811;51.900;10.734;2023-05-07T05:49:50;9.70;99.90
5578;DHT22;2811;51.900;10.734;2023-05-07T05:52:17;9.70;99.90
5578;DHT22;2811;51.900;10.734;2023-05-07T05:54:43;9.90;99.90
5578;DHT22;2811;51.900;10.734;2023-05-07T05:57:11;9.90;99.90
5578;DHT22;2811;51.900;10.734;2023-05-07T05:59:38;10.10;99.90
5578;DHT22;2811;51.900;10.734;2023-05-07T06:02:04;10.20;99.90
5578;DHT22;2811;51.900;10.734;2023-05-07T06:04:31;10.00;99.90
5578;DHT22;2811;51.900;10.734;2023-05-07T06:06:58;10.10;99.90
5578;DHT22;2811;51.900;10.734;2023-05-07T06:09:25;10.20;99.90
5578;DHT22;2811;51.900;10.734;2023-05-07T06:11:51;10.30;99.90
5578;DHT22;2811;51.900;10.734;2023-05-07T06:14:19;10.20;99.90
5578;DHT22;2811;51.900;10.734;2023-05-07T06:16:46;10.20;99.90
5578;DHT22;2811;51.900;10.734;2023-05-07T06:19:12;10.10;99.90
5578;DHT22;2811;51.900;10.734;2023-05-07T06:21:39;10.00;99.90
5578;DHT22;2811;51.900;10.734;2023-05-07T06:24:07;10.00;99.90
5578;DHT22;2811;51.900;10.734;2023-05-07T06:26:33;10.10;99.90
5578;DHT22;2811;51.900;10.734;2023-05-07T06:29:00;10.20;99.90
5578;DHT22;2811;51.900;10.734;2023-05-07T06:31:30;10.30;99.90
5578;DHT22;2811;51.900;10.734;2023-05-07T06:33:57;10.20;99.90
5578;DHT22;2811;51.900;10.734;2023-05-07T06:36:24;10.20;99.90
5578;DHT22;2811;51.900;10.734;2023-05-07T06:38:51;10.00;99.90
5578;DHT22;2811;51.900;10.734;2023-05-07T06:41:18;10.10;99.90
5578;DHT22;2811;51.900;10.734;2023-05-07T06:43:45;10.20;99.90
5578;DHT22;2811;51.900;10.734;2023-05-07T06:46:12;10.10;99.90
5578;DHT22;2811;51.900;10.734;2023-05-07T06:48:40;10.20;99.90
5578;DHT22;2811;51.900;10.734;2023-05-07T06:51:07;10.20;99.90
5578;DHT22;2811;51.900;10.734;2023-05-07T06:53:34;10.20;99.90
5578;DHT22;2811;51.900;10.734;2023-05-07T06:56:01;10.30;99.90
5578;DHT22;2811;51.900;10.734;2023-05-07T06:58:28;10.20;99.90
5578;DHT22;2811;51.900;10.734;2023-05-07T07:00:54;10.10;99.90
5578;DHT22;2811;51.900;10.734;2023-05-07T07:03:21;10.10;99.90
5578;DHT22;2811;51.900;10.734;2023-05-07T07:05:51;10.20;99.90
5578;DHT22;2811;51.900;10.734;2023-05-07T07:08:18;10.30;99.90
5578;DHT22;2811;51.900;10.734;2023-05-07T07:10:46;10.30;99.90
5578;DHT22;2811;51.900;10.734;2023-05-07T07:13:13;10.40;99.90
5578;DHT22;2811;51.900;10.734;2023-05-07T07:15:40;10.50;99.90
5578;DHT22;2811;51.900;10.734;2023-05-07T07:18:06;10.50;99.90
5578;DHT22;2811;51.900;10.734;2023-05-07T07:20:33;10.50;99.90
5578;DHT22;2811;51.900;10.734;2023-05-07T07:23:01;10.60;99.90
5578;DHT22;2811;51.900;10.734;2023-05-07T07:25:28;10.50;99.90
5578;DHT22;2811;51.900;10.734;2023-05-07T07:27:54;10.50;99.90
5578;DHT22;2811;51.900;10.734;2023-05-07T07:30:21;10.70;99.90
5578;DHT22;2811;51.900;10.734;2023-05-07T07:32:48;10.60;99.90
5578;DHT22;2811;51.900;10.734;2023-05-07T07:35:14;10.60;99.90
5578;DHT22;2811;51.900;10.734;2023-05-07T07:37:41;10.50;99.90
5578;DHT22;2811;51.900;10.734;2023-05-07T07:40:11;10.50;99.90
5578;DHT22;2811;51.900;10.734;2023-05-07T07:42:38;10.50;99.90
5578;DHT22;2811;51.900;10.734;2023-05-07T07:45:05;10.50;99.90
5578;DHT22;2811;51.900;10.734;2023-05-07T07:47:32;10.50;99.90
5578;DHT22;2811;51.900;10.734;2023-05-07T07:49:59;10.50;99.90
5578;DHT22;2811;51.900;10.734;2023-05-07T07:52:26;10.60;99.90
5578;DHT22;2811;51.900;10.734;2023-05-07T07:54:52;10.70;99.90
5578;DHT22;2811;51.900;10.734;2023-05-07T07:57:20;10.60;99.90
5578;DHT22;2811;51.900;10.734;2023-05-07T07:59:47;10.70;99.90
5578;DHT22;2811;51.900;10.734;2023-05-07T08:02:13;10.70;99.90
5578;DHT22;2811;51.900;10.734;2023-05-07T08:04:40;11.00;99.90
5578;DHT22;2811;51.900;10.734;2023-05-07T08:07:08;11.00;99.90
5578;DHT22;2811;51.900;10.734;2023-05-07T08:09:35;11.00;99.90
5578;DHT22;2811;51.900;10.734;2023-05-07T08:12:02;11.20;99.90
5578;DHT22;2811;51.900;10.734;2023-05-07T08:14:30;11.30;99.90
5578;DHT22;2811;51.900;10.734;2023-05-07T08:16:57;11.20;99.90
5578;DHT22;2811;51.900;10.734;2023-05-07T08:19:24;11.30;99.90
5578;DHT22;2811;51.900;10.734;2023-05-07T08:21:50;11.30;99.90
5578;DHT22;2811;51.900;10.734;2023-05-07T08:24:18;11.20;99.90
5578;DHT22;2811;51.900;10.734;2023-05-07T08:26:44;11.20;99.90
5578;DHT22;2811;51.900;10.734;2023-05-07T08:29:11;11.40;99.90
5578;DHT22;2811;51.900;10.734;2023-05-07T08:31:39;11.30;99.90
5578;DHT22;2811;51.900;10.734;2023-05-07T08:34:06;11.10;99.90
5578;DHT22;2811;51.900;10.734;2023-05-07T08:36:32;11.00;99.90
5578;DHT22;2811;51.900;10.734;2023-05-07T08:38:59;11.00;99.90
5578;DHT22;2811;51.900;10.734;2023-05-07T08:41:26;11.10;99.90
5578;DHT22;2811;51.900;10.734;2023-05-07T08:43:55;11.10;99.90
5578;DHT22;2811;51.900;10.734;2023-05-07T08:46:24;11.10;99.90
5578;DHT22;2811;51.900;10.734;2023-05-07T08:48:53;11.30;99.90
5578;DHT22;2811;51.900;10.734;2023-05-07T08:51:21;11.30;99.90
5578;DHT22;2811;51.900;10.734;2023-05-07T08:53:48;11.30;99.90
5578;DHT22;2811;51.900;10.734;2023-05-07T08:56:16;11.20;99.90
5578;DHT22;2811;51.900;10.734;2023-05-07T08:58:43;11.30;99.90
5578;DHT22;2811;51.900;10.734;2023-05-07T09:01:13;11.20;99.90
5578;DHT22;2811;51.900;10.734;2023-05-07T09:03:40;11.20;99.90
5578;DHT22;2811;51.900;10.734;2023-05-07T09:06:09;11.20;99.90
5578;DHT22;2811;51.900;10.734;2023-05-07T09:08:36;11.20;99.90
5578;DHT22;2811;51.900;10.734;2023-05-07T09:11:03;11.40;99.90
5578;DHT22;2811;51.900;10.734;2023-05-07T09:13:30;11.20;99.90
5578;DHT22;2811;51.900;10.734;2023-05-07T09:15:57;11.20;99.90
5578;DHT22;2811;51.900;10.734;2023-05-07T09:18:24;11.10;99.90
5578;DHT22;2811;51.900;10.734;2023-05-07T09:20:50;11.20;99.90
5578;DHT22;2811;51.900;10.734;2023-05-07T09:23:19;11.30;99.90
5578;DHT22;2811;51.900;10.734;2023-05-07T09:25:46;11.40;99.90
5578;DHT22;2811;51.900;10.734;2023-05-07T09:28:13;11.60;99.90
5578;DHT22;2811;51.900;10.734;2023-05-07T09:30:40;11.60;99.90
5578;DHT22;2811;51.900;10.734;2023-05-07T09:33:06;11.60;99.90
5578;DHT22;2811;51.900;10.734;2023-05-07T09:35:33;11.30;99.90
5578;DHT22;2811;51.900;10.734;2023-05-07T09:38:00;11.30;99.90
5578;DHT22;2811;51.900;10.734;2023-05-07T09:40:30;11.40;99.90
5578;DHT22;2811;51.900;10.734;2023-05-07T09:43:08;11.30;99.90
5578;DHT22;2811;51.900;10.734;2023-05-07T09:45:36;11.20;99.90
5578;DHT22;2811;51.900;10.734;2023-05-07T09:48:05;11.20;99.90
5578;DHT22;2811;51.900;10.734;2023-05-07T09:50:35;11.20;99.90
5578;DHT22;2811;51.900;10.734;2023-05-07T09:53:03;11.30;99.90
5578;DHT22;2811;51.900;10.734;2023-05-07T09:55:32;11.40;99.90
5578;DHT22;2811;51.900;10.734;2023-05-07T09:57:59;11.40;99.90
5578;DHT22;2811;51.900;10.734;2023-05-07T10:00:28;11.50;99.90
5578;DHT22;2811;51.900;10.734;2023-05-07T10:02:57;11.70;99.90
5578;DHT22;2811;51.900;10.734;2023-05-07T10:05:24;11.90;99.90
5578;DHT22;2811;51.900;10.734;2023-05-07T10:07:52;11.70;99.90
5578;DHT22;2811;51.900;10.734;2023-05-07T10:10:19;11.80;99.90
5578;DHT22;2811;51.900;10.734;2023-05-07T10:12:47;12.00;99.90
5578;DHT22;2811;51.900;10.734;2023-05-07T10:15:15;12.00;99.90
5578;DHT22;2811;51.900;10.734;2023-05-07T10:17:42;11.90;99.90
5578;DHT22;2811;51.900;10.734;2023-05-07T10:20:09;11.90;99.90
5578;DHT22;2811;51.900;10.734;2023-05-07T10:22:38;12.00;99.90
5578;DHT22;2811;51.900;10.734;2023-05-07T10:25:14;12.00;99.90
5578;DHT22;2811;51.900;10.734;2023-05-07T10:27:42;12.20;99.90
5578;DHT22;2811;51.900;10.734;2023-05-07T10:30:17;12.10;99.90
5578;DHT22;2811;51.900;10.734;2023-05-07T10:32:49;12.40;99.90
5578;DHT22;2811;51.900;10.734;2023-05-07T10:35:29;12.40;99.90
5578;DHT22;2811;51.900;10.734;2023-05-07T10:37:57;12.20;99.90
5578;DHT22;2811;51.900;10.734;2023-05-07T10:40:24;12.10;99.90
5578;DHT22;2811;51.900;10.734;2023-05-07T10:42:55;11.90;99.90
5578;DHT22;2811;51.900;10.734;2023-05-07T10:45:25;11.90;99.90
5578;DHT22;2811;51.900;10.734;2023-05-07T10:48:11;12.00;99.90
5578;DHT22;2811;51.900;10.734;2023-05-07T10:50:39;12.40;99.90
5578;DHT22;2811;51.900;10.734;2023-05-07T10:53:22;12.30;99.90
5578;DHT22;2811;51.900;10.734;2023-05-07T10:58:38;12.30;99.90
5578;DHT22;2811;51.900;10.734;2023-05-07T11:01:06;12.40;99.90
5578;DHT22;2811;51.900;10.734;2023-05-07T11:03:33;12.30;99.90
5578;DHT22;2811;51.900;10.734;2023-05-07T11:06:10;12.00;99.90
5578;DHT22;2811;51.900;10.734;2023-05-07T11:08:53;12.20;99.90
5578;DHT22;2811;51.900;10.734;2023-05-07T11:11:44;12.40;99.90
5578;DHT22;2811;51.900;10.734;2023-05-07T11:14:11;12.60;99.90
5578;DHT22;2811;51.900;10.734;2023-05-07T11:16:40;12.50;99.90
5578;DHT22;2811;51.900;10.734;2023-05-07T11:19:08;12.60;99.90
5578;DHT22;2811;51.900;10.734;2023-05-07T11:21:35;12.60;99.90
5578;DHT22;2811;51.900;10.734;2023-05-07T11:24:03;12.70;99.90
5578;DHT22;2811;51.900;10.734;2023-05-07T11:26:41;12.90;99.90
5578;DHT22;2811;51.900;10.734;2023-05-07T11:29:11;12.90;99.90
5578;DHT22;2811;51.900;10.734;2023-05-07T11:31:40;13.10;99.90
5578;DHT22;2811;51.900;10.734;2023-05-07T11:34:07;13.00;99.90
5578;DHT22;2811;51.900;10.734;2023-05-07T11:36:34;12.90;99.90
5578;DHT22;2811;51.900;10.734;2023-05-07T11:39:02;12.90;99.90
5578;DHT22;2811;51.900;10.734;2023-05-07T11:41:35;13.10;99.90
5578;DHT22;2811;51.900;10.734;2023-05-07T11:44:02;13.00;99.90
5578;DHT22;2811;51.900;10.734;2023-05-07T11:46:31;12.80;99.90
5578;DHT22;2811;51.900;10.734;2023-05-07T11:49:00;12.80;99.90
5578;DHT22;2811;51.900;10.734;2023-05-07T11:51:27;12.70;99.90
5578;DHT22;2811;51.900;10.734;2023-05-07T11:53:53;12.70;99.90
5578;DHT22;2811;51.900;10.734;2023-05-07T11:56:20;12.80;99.90
5578;DHT22;2811;51.900;10.734;2023-05-07T11:58:48;13.00;99.90
5578;DHT22;2811;51.900;10.734;2023-05-07T12:01:16;12.90;99.90
5578;DHT22;2811;51.900;10.734;2023-05-07T12:03:44;13.00;99.90
5578;DHT22;2811;51.900;10.734;2023-05-07T12:06:14;12.90;99.90
5578;DHT22;2811;51.900;10.734;2023-05-07T12:08:41;12.80;99.90
5578;DHT22;2811;51.900;10.734;2023-05-07T12:11:09;12.60;99.90
5578;DHT22;2811;51.900;10.734;2023-05-07T12:13:37;12.90;99.90
5578;DHT22;2811;51.900;10.734;2023-05-07T12:16:05;13.10;99.90
5578;DHT22;2811;51.900;10.734;2023-05-07T12:18:34;13.10;99.90
5578;DHT22;2811;51.900;10.734;2023-05-07T12:21:01;13.00;99.90
5578;DHT22;2811;51.900;10.734;2023-05-07T12:23:30;12.90;99.90
5578;DHT22;2811;51.900;10.734;2023-05-07T12:25:56;13.10;99.90
5578;DHT22;2811;51.900;10.734;2023-05-07T12:28:23;12.90;99.90
5578;DHT22;2811;51.900;10.734;2023-05-07T12:30:51;12.90;99.90
5578;DHT22;2811;51.900;10.734;2023-05-07T12:33:19;12.80;99.90
5578;DHT22;2811;51.900;10.734;2023-05-07T12:35:50;12.80;99.90
5578;DHT22;2811;51.900;10.734;2023-05-07T12:38:17;13.00;99.90
5578;DHT22;2811;51.900;10.734;2023-05-07T12:40:47;13.30;99.90
5578;DHT22;2811;51.900;10.734;2023-05-07T12:43:16;13.50;99.90
5578;DHT22;2811;51.900;10.734;2023-05-07T12:45:44;13.40;99.90
5578;DHT22;2811;51.900;10.734;2023-05-07T12:48:11;13.40;99.90
5578;DHT22;2811;51.900;10.734;2023-05-07T12:50:37;13.30;99.90
5578;DHT22;2811;51.900;10.734;2023-05-07T12:53:05;13.20;99.90
5578;DHT22;2811;51.900;10.734;2023-05-07T12:55:41;13.10;99.90
5578;DHT22;2811;51.900;10.734;2023-05-07T12:58:15;13.20;99.90
5578;DHT22;2811;51.900;10.734;2023-05-07T13:00:43;13.30;99.90
5578;DHT22;2811;51.900;10.734;2023-05-07T13:03:10;13.00;99.90
5578;DHT22;2811;51.900;10.734;2023-05-07T13:05:36;13.30;99.90
5578;DHT22;2811;51.900;10.734;2023-05-07T13:08:03;13.60;99.90
5578;DHT22;2811;51.900;10.734;2023-05-07T13:10:30;13.80;99.90
5578;DHT22;2811;51.900;10.734;2023-05-07T13:12:57;13.90;99.90
5578;DHT22;2811;51.900;10.734;2023-05-07T13:15:25;13.90;99.90
5578;DHT22;2811;51.900;10.734;2023-05-07T13:17:52;13.90;99.90
5578;DHT22;2811;51.900;10.734;2023-05-07T13:20:19;13.80;99.90
5578;DHT22;2811;51.900;10.734;2023-05-07T13:22:45;13.80;99.90
5578;DHT22;2811;51.900;10.734;2023-05-07T13:25:12;13.90;99.90
5578;DHT22;2811;51.900;10.734;2023-05-07T13:27:39;14.00;99.90
5578;DHT22;2811;51.900;10.734;2023-05-07T13:30:06;14.00;99.90
5578;DHT22;2811;51.900;10.734;2023-05-07T13:32:34;14.10;99.90
5578;DHT22;2811;51.900;10.734;2023-05-07T13:35:01;14.10;99.90
5578;DHT22;2811;51.900;10.734;2023-05-07T13:37:28;14.10;99.90
5578;DHT22;2811;51.900;10.734;2023-05-07T13:39:55;13.80;99.90
5578;DHT22;2811;51.900;10.734;2023-05-07T13:42:22;13.70;99.90
5578;DHT22;2811;51.900;10.734;2023-05-07T13:44:48;13.80;99.90
5578;DHT22;2811;51.900;10.734;2023-05-07T13:47:15;13.70;99.90
5578;DHT22;2811;51.900;10.734;2023-05-07T13:49:43;13.40;99.90
5578;DHT22;2811;51.900;10.734;2023-05-07T13:52:10;13.30;99.90
5578;DHT22;2811;51.900;10.734;2023-05-07T13:54:37;13.10;99.90
5578;DHT22;2811;51.900;10.734;2023-05-07T13:57:04;13.10;99.90
5578;DHT22;2811;51.900;10.734;2023-05-07T13:59:30;13.10;99.90
5578;DHT22;2811;51.900;10.734;2023-05-07T14:01:57;13.10;99.90
5578;DHT22;2811;51.900;10.734;2023-05-07T14:04:23;13.10;99.90
5578;DHT22;2811;51.900;10.734;2023-05-07T14:06:52;13.10;99.90
5578;DHT22;2811;51.900;10.734;2023-05-07T14:09:18;13.20;99.90
5578;DHT22;2811;51.900;10.734;2023-05-07T14:11:45;13.20;99.90
5578;DHT22;2811;51.900;10.734;2023-05-07T14:14:13;13.10;99.90
5578;DHT22;2811;51.900;10.734;2023-05-07T14:16:39;12.90;99.90
5578;DHT22;2811;51.900;10.734;2023-05-07T14:19:06;13.00;99.90
5578;DHT22;2811;51.900;10.734;2023-05-07T14:21:33;12.90;99.90
5578;DHT22;2811;51.900;10.734;2023-05-07T14:24:01;12.90;99.90
5578;DHT22;2811;51.900;10.734;2023-05-07T14:26:27;12.80;99.90
5578;DHT22;2811;51.900;10.734;2023-05-07T14:28:54;13.00;99.90
5578;DHT22;2811;51.900;10.734;2023-05-07T14:31:23;13.00;99.90
5578;DHT22;2811;51.900;10.734;2023-05-07T14:33:50;13.00;99.90
5578;DHT22;2811;51.900;10.734;2023-05-07T14:36:17;13.00;99.90
5578;DHT22;2811;51.900;10.734;2023-05-07T14:38:45;12.90;99.90
5578;DHT22;2811;51.900;10.734;2023-05-07T14:41:13;13.00;99.90
5578;DHT22;2811;51.900;10.734;2023-05-07T14:43:40;12.90;99.90
5578;DHT22;2811;51.900;10.734;2023-05-07T14:46:07;13.00;99.90
5578;DHT22;2811;51.900;10.734;2023-05-07T14:48:33;13.20;99.90
5578;DHT22;2811;51.900;10.734;2023-05-07T14:51:00;13.20;99.90
5578;DHT22;2811;51.900;10.734;2023-05-07T14:53:26;13.10;99.90
5578;DHT22;2811;51.900;10.734;2023-05-07T14:55:54;13.30;99.90
5578;DHT22;2811;51.900;10.734;2023-05-07T14:58:22;13.20;99.90
5578;DHT22;2811;51.900;10.734;2023-05-07T15:00:48;13.20;99.90
5578;DHT22;2811;51.900;10.734;2023-05-07T15:03:15;13.10;99.90
5578;DHT22;2811;51.900;10.734;2023-05-07T15:05:42;13.20;99.90
5578;DHT22;2811;51.900;10.734;2023-05-07T15:08:08;13.30;99.90
5578;DHT22;2811;51.900;10.734;2023-05-07T15:10:36;13.00;99.90
5578;DHT22;2811;51.900;10.734;2023-05-07T15:13:06;12.90;99.90
5578;DHT22;2811;51.900;10.734;2023-05-07T15:15:34;13.10;99.90
5578;DHT22;2811;51.900;10.734;2023-05-07T15:18:01;13.40;99.90
5578;DHT22;2811;51.900;10.734;2023-05-07T15:20:28;13.30;99.90
5578;DHT22;2811;51.900;10.734;2023-05-07T15:22:54;13.30;99.90
5578;DHT22;2811;51.900;10.734;2023-05-07T15:25:22;13.40;99.90
5578;DHT22;2811;51.900;10.734;2023-05-07T15:27:49;13.30;99.90
5578;DHT22;2811;51.900;10.734;2023-05-07T15:30:15;13.40;99.90
5578;DHT22;2811;51.900;10.734;2023-05-07T15:32:43;13.40;99.90
5578;DHT22;2811;51.900;10.734;2023-05-07T15:35:10;13.40;99.90
5578;DHT22;2811;51.900;10.734;2023-05-07T15:37:37;13.30;99.90
5578;DHT22;2811;51.900;10.734;2023-05-07T15:40:05;13.40;99.90
5578;DHT22;2811;51.900;10.734;2023-05-07T15:42:32;13.30;99.90
5578;DHT22;2811;51.900;10.734;2023-05-07T15:44:59;13.30;99.90
5578;DHT22;2811;51.900;10.734;2023-05-07T15:47:26;13.40;99.90
5578;DHT22;2811;51.900;10.734;2023-05-07T15:49:54;13.50;99.90
5578;DHT22;2811;51.900;10.734;2023-05-07T15:52:21;13.40;99.90
5578;DHT22;2811;51.900;10.734;2023-05-07T15:54:47;13.40;99.90